Time;durP1;ratioP1;P1;durP2;ratioP2;P2;SDS_P1;SDS_P2;PMS_P1;PMS_P2;Temp;Humidity;BMP_temperature;BMP_pressure;BME280_temperature;BME280_humidity;BME280_pressure;Samples;Min_cycle;Max_cycle;Signal;HPM_P1;HPM_P2
2023/05/10 00:02:18;;;;;;;78.70;33.13;;;;;;;12.33;100.00;100895.59;5007365;28;20034;-61
2023/05/10 00:04:43;;;;;;;68.75;31.85;;;;;;;12.30;100.00;100895.72;5007626;28;20623;-60
2023/05/10 00:07:10;;;;;;;73.47;32.50;;;;;;;12.30;100.00;100891.31;5006957;28;20036;-61
2023/05/10 00:09:35;;;;;;;71.82;31.70;;;;;;;12.21;100.00;100896.94;5007066;28;20084;-57
2023/05/10 00:12:00;;;;;;;64.45;30.55;;;;;;;12.13;100.00;100884.91;4999065;28;20042;-60
2023/05/10 00:14:26;;;;;;;70.50;31.80;;;;;;;12.11;100.00;100897.34;4987391;28;20030;-58
2023/05/10 00:16:51;;;;;;;77.07;34.72;;;;;;;12.11;100.00;100894.69;4988016;28;20027;-59
2023/05/10 00:19:17;;;;;;;75.03;33.83;;;;;;;12.09;100.00;100899.16;5004760;28;20129;-60
2023/05/10 00:21:42;;;;;;;84.20;34.67;;;;;;;12.08;100.00;100892.19;4991467;28;20417;-63
2023/05/10 00:24:07;;;;;;;81.68;36.25;;;;;;;12.07;100.00;100895.72;4988115;28;20037;-60
2023/05/10 00:26:33;;;;;;;78.50;34.42;;;;;;;12.02;100.00;100892.38;4987919;28;20030;-59
2023/05/10 00:28:58;;;;;;;88.63;37.97;;;;;;;12.03;100.00;100894.09;4987549;28;20046;-61
2023/05/10 00:31:23;;;;;;;85.72;36.42;;;;;;;12.00;100.00;100897.72;4987637;28;20489;-62
2023/05/10 00:33:49;;;;;;;84.00;37.10;;;;;;;11.96;100.00;100892.63;4995489;28;20103;-59
2023/05/10 00:36:14;;;;;;;98.60;39.08;;;;;;;11.92;100.00;100902.41;5006683;28;20053;-59
2023/05/10 00:38:40;;;;;;;86.78;37.83;;;;;;;11.88;100.00;100896.41;5007408;28;20465;-58
2023/05/10 00:41:06;;;;;;;90.10;38.05;;;;;;;11.88;100.00;100901.69;5007009;28;20474;-59
2023/05/10 00:43:31;;;;;;;91.68;38.28;;;;;;;11.87;100.00;100899.13;5006253;28;20185;-58
2023/05/10 00:45:57;;;;;;;102.90;40.78;;;;;;;11.88;100.00;100906.09;5006588;28;20145;-60
2023/05/10 00:48:22;;;;;;;110.10;43.03;;;;;;;11.91;100.00;100897.19;5004882;28;20068;-59
2023/05/10 00:50:48;;;;;;;110.82;41.47;;;;;;;11.95;100.00;100897.03;4985531;28;20412;-60
2023/05/10 00:53:14;;;;;;;120.82;45.35;;;;;;;11.99;100.00;100896.00;4986797;28;20561;-59
2023/05/10 00:55:39;;;;;;;127.88;48.50;;;;;;;12.02;100.00;100887.09;4986240;28;20026;-61
2023/05/10 00:58:04;;;;;;;132.05;46.72;;;;;;;12.06;100.00;100886.03;4985762;28;20036;-59
2023/05/10 01:00:30;;;;;;;119.00;43.70;;;;;;;12.07;100.00;100884.31;4987195;28;20058;-60
2023/05/10 01:02:55;;;;;;;125.82;44.25;;;;;;;12.06;100.00;100879.91;4988608;28;20523;-58
2023/05/10 01:05:21;;;;;;;132.63;44.75;;;;;;;12.06;100.00;100891.34;5001827;28;20092;-59
2023/05/10 01:07:47;;;;;;;133.98;45.25;;;;;;;11.98;100.00;100890.78;5009865;28;20370;-60
2023/05/10 01:10:12;;;;;;;122.80;44.38;;;;;;;12.04;100.00;100887.88;5063527;22;20120;-65
2023/05/10 01:12:40;;;;;;;125.43;47.97;;;;;;;12.09;100.00;100893.88;4989982;28;20031;-61
2023/05/10 01:15:07;;;;;;;127.83;49.60;;;;;;;12.08;100.00;100897.47;4991185;28;20049;-60
2023/05/10 01:17:34;;;;;;;124.57;50.30;;;;;;;12.08;100.00;100902.75;5006753;28;20080;-60
2023/05/10 01:20:00;;;;;;;145.27;51.45;;;;;;;12.16;100.00;100912.97;4990850;28;20029;-62
2023/05/10 01:22:37;;;;;;;139.23;49.67;;;;;;;12.27;100.00;100907.28;5010321;28;20037;-60
2023/05/10 01:25:15;;;;;;;121.10;48.88;;;;;;;12.33;100.00;100912.31;5010145;28;20030;-60
2023/05/10 01:28:23;;;;;;;116.32;47.17;;;;;;;12.31;100.00;100914.16;4993529;28;20542;-62
2023/05/10 01:31:21;;;;;;;113.45;46.03;;;;;;;12.38;100.00;100920.91;5022064;28;20442;-64
2023/05/10 01:33:52;;;;;;;108.03;45.67;;;;;;;12.46;100.00;100922.41;5009718;28;20101;-62
2023/05/10 01:36:37;;;;;;;114.45;47.38;;;;;;;12.47;100.00;100922.34;5009840;28;20105;-59
2023/05/10 01:39:17;;;;;;;117.03;46.83;;;;;;;12.57;100.00;100917.53;4998308;28;20034;-60
2023/05/10 01:42:10;;;;;;;131.52;46.97;;;;;;;12.61;100.00;100918.25;4989628;28;20061;-63
2023/05/10 01:44:40;;;;;;;127.57;46.85;;;;;;;12.60;100.00;100927.97;4991112;28;20089;-62
2023/05/10 01:47:12;;;;;;;;;;;;;;;12.65;100.00;100925.16;4989400;28;20952;-60
2023/05/10 01:49:44;;;;;;;139.50;46.30;;;;;;;12.70;100.00;100931.09;4991788;28;20401;-61
2023/05/10 01:52:12;;;;;;;148.15;45.83;;;;;;;12.73;100.00;100925.69;5008726;28;20061;-61
2023/05/10 01:55:02;;;;;;;138.82;44.40;;;;;;;12.72;100.00;100928.38;5009103;28;20030;-60
2023/05/10 01:57:33;;;;;;;135.57;45.72;;;;;;;12.80;100.00;100931.59;4993084;28;20476;-61
2023/05/10 02:00:00;;;;;;;148.35;48.55;;;;;;;12.76;100.00;100929.97;5009985;28;20030;-63
2023/05/10 02:02:27;;;;;;;143.75;45.95;;;;;;;12.76;100.00;100935.25;5007970;28;20030;-62
2023/05/10 02:04:53;;;;;;;148.73;46.22;;;;;;;12.67;100.00;100941.78;5008815;28;20048;-61
2023/05/10 02:07:19;;;;;;;130.43;43.47;;;;;;;12.79;100.00;100945.72;5007573;28;20025;-60
2023/05/10 02:09:48;;;;;;;136.77;45.05;;;;;;;12.83;100.00;100942.03;5007663;28;20072;-61
2023/05/10 02:12:13;;;;;;;132.27;43.22;;;;;;;12.88;100.00;100939.19;5005910;28;20057;-61
2023/05/10 02:14:40;;;;;;;147.43;45.35;;;;;;;12.91;100.00;100940.84;4988401;28;20076;-62
2023/05/10 02:17:07;;;;;;;139.20;45.35;;;;;;;12.87;100.00;100943.63;4988964;28;20045;-64
2023/05/10 02:19:34;;;;;;;134.18;44.83;;;;;;;12.86;100.00;100943.69;4988750;28;20378;-65
2023/05/10 02:22:00;;;;;;;119.47;42.47;;;;;;;12.89;100.00;100948.84;4998411;28;20033;-58
2023/05/10 02:24:26;;;;;;;120.82;44.08;;;;;;;12.93;100.00;100941.63;5009434;28;20038;-60
2023/05/10 02:26:53;;;;;;;118.78;44.00;;;;;;;13.00;100.00;100948.38;5008086;28;20022;-59
2023/05/10 02:29:19;;;;;;;119.90;41.22;;;;;;;13.07;100.00;100939.28;5008704;28;20491;-59
2023/05/10 02:31:45;;;;;;;111.72;42.38;;;;;;;13.05;100.00;100946.41;5009571;28;20034;-60
2023/05/10 02:34:11;;;;;;;104.93;40.10;;;;;;;13.05;100.00;100945.53;4997690;28;20026;-61
2023/05/10 02:36:37;;;;;;;95.20;36.95;;;;;;;13.04;100.00;100949.13;4989314;28;20065;-61
2023/05/10 02:39:04;;;;;;;93.93;36.17;;;;;;;13.02;100.00;100944.75;4987574;28;20080;-61
2023/05/10 02:41:31;;;;;;;86.45;32.85;;;;;;;13.05;100.00;100945.53;4990252;28;20521;-60
2023/05/10 02:43:57;;;;;;;90.53;36.13;;;;;;;13.05;100.00;100951.69;4989479;28;20022;-60
2023/05/10 02:46:23;;;;;;;83.90;34.67;;;;;;;13.05;100.00;100956.13;4998926;28;20076;-60
2023/05/10 02:48:48;;;;;;;92.32;37.65;;;;;;;13.07;100.00;100959.56;5008962;28;20085;-59
2023/05/10 02:51:17;;;;;;;82.82;36.40;;;;;;;13.08;100.00;100962.16;5008176;28;20538;-58
2023/05/10 02:53:44;;;;;;;83.65;37.28;;;;;;;13.07;100.00;100955.16;4999344;28;20030;-62
2023/05/10 02:56:14;;;;;;;82.53;35.60;;;;;;;13.13;100.00;100956.66;4988643;28;20018;-62
2023/05/10 02:58:39;;;;;;;92.53;37.25;;;;;;;13.10;100.00;100962.94;4989479;28;20511;-60
2023/05/10 03:01:06;;;;;;;85.57;35.50;;;;;;;13.12;100.00;100957.56;4989220;28;20076;-60
2023/05/10 03:03:31;;;;;;;90.03;34.80;;;;;;;13.04;100.00;100959.69;4989238;28;20026;-60
2023/05/10 03:05:58;;;;;;;81.32;34.60;;;;;;;12.97;100.00;100954.66;4997009;28;20538;-58
2023/05/10 03:08:23;;;;;;;80.72;34.55;;;;;;;13.00;100.00;100964.25;5008931;28;20022;-63
2023/05/10 03:11:04;;;;;;;85.93;34.67;;;;;;;13.05;100.00;100961.41;5006399;28;20511;-60
2023/05/10 03:13:44;;;;;;;83.78;32.55;;;;;;;13.00;100.00;100964.25;5001069;28;20062;-62
2023/05/10 03:16:16;;;;;;;81.50;36.20;;;;;;;13.03;100.00;100958.81;4988237;28;20030;-60
2023/05/10 03:18:51;;;;;;;75.45;34.30;;;;;;;13.01;100.00;100955.41;4987583;28;20069;-60
2023/05/10 03:21:18;;;;;;;85.05;36.58;;;;;;;13.02;100.00;100958.00;4988784;28;20403;-59
2023/05/10 03:23:47;;;;;;;72.68;30.77;;;;;;;13.01;100.00;100956.25;4987823;28;20037;-60
2023/05/10 03:26:17;;;;;;;64.35;30.58;;;;;;;13.08;100.00;100962.16;4993384;28;20061;-64
2023/05/10 03:28:43;;;;;;;63.88;30.80;;;;;;;13.11;100.00;100959.38;5000391;28;20037;-61
2023/05/10 03:31:09;;;;;;;68.85;31.90;;;;;;;13.09;100.00;100958.56;4987019;28;20030;-61
2023/05/10 03:33:34;;;;;;;80.10;35.55;;;;;;;13.04;100.00;100954.41;4987665;28;20525;-59
2023/05/10 03:35:59;;;;;;;86.30;40.17;;;;;;;13.04;100.00;100957.06;4987869;28;20428;-59
2023/05/10 03:38:25;;;;;;;91.13;43.28;;;;;;;13.01;100.00;100955.41;4996895;28;20033;-58
2023/05/10 03:40:50;;;;;;;94.65;43.10;;;;;;;13.00;100.00;100965.13;5008106;28;20026;-61
2023/05/10 03:43:15;;;;;;;90.75;41.70;;;;;;;13.06;100.00;100971.94;5007836;28;20084;-59
2023/05/10 03:45:41;;;;;;;86.82;43.25;;;;;;;13.11;100.00;100964.66;5009111;28;20034;-59
2023/05/10 03:48:06;;;;;;;88.95;43.60;;;;;;;13.02;100.00;100979.16;5007796;28;20022;-60
2023/05/10 03:50:31;;;;;;;81.03;38.55;;;;;;;13.08;100.00;100977.16;5003636;28;20041;-61
2023/05/10 03:52:57;;;;;;;71.93;36.05;;;;;;;13.05;100.00;100978.16;4987665;28;20065;-60
2023/05/10 03:55:23;;;;;;;69.15;34.55;;;;;;;12.87;100.00;100975.34;4988027;28;20109;-59
2023/05/10 03:57:49;;;;;;;67.90;36.28;;;;;;;12.92;100.00;100982.22;4988193;28;20030;-62
2023/05/10 04:00:15;;;;;;;67.40;36.85;;;;;;;12.96;100.00;100979.41;4987867;28;20049;-60
2023/05/10 04:02:40;;;;;;;70.95;40.20;;;;;;;12.99;100.00;100978.41;4993975;28;20034;-62
2023/05/10 04:05:06;;;;;;;83.47;46.40;;;;;;;12.97;100.00;100980.25;4988149;28;20029;-60
2023/05/10 04:07:31;;;;;;;74.15;41.88;;;;;;;12.98;100.00;100976.69;4989221;28;20025;-62
2023/05/10 04:09:57;;;;;;;74.85;40.03;;;;;;;12.95;100.00;100977.69;5004738;28;20036;-59
2023/05/10 04:12:23;;;;;;;62.22;35.95;;;;;;;13.02;100.00;100965.06;4989477;28;20489;-59
2023/05/10 04:14:49;;;;;;;69.28;37.38;;;;;;;13.02;100.00;100965.06;4986727;28;20117;-59
2023/05/10 04:17:14;;;;;;;71.97;36.90;;;;;;;13.03;100.00;100969.41;4987382;28;20040;-60
2023/05/10 04:19:39;;;;;;;94.60;48.05;;;;;;;12.96;100.00;100973.25;4987932;28;20358;-61
2023/05/10 04:22:05;;;;;;;92.22;50.47;;;;;;;13.06;100.00;100977.22;4986652;28;20070;-59
2023/05/10 04:24:30;;;;;;;85.10;48.90;;;;;;;13.01;100.00;100984.50;4987521;28;20030;-62
2023/05/10 04:26:55;;;;;;;83.68;47.90;;;;;;;13.04;100.00;100987.03;4986604;28;20128;-62
2023/05/10 04:29:21;;;;;;;81.63;47.35;;;;;;;13.08;100.00;100993.91;4986043;28;20059;-59
2023/05/10 04:31:46;;;;;;;83.55;46.22;;;;;;;12.99;100.00;100987.22;4985745;28;20058;-60
2023/05/10 04:34:11;;;;;;;79.03;43.75;;;;;;;12.97;100.00;100996.97;4985310;28;20031;-58
2023/05/10 04:36:37;;;;;;;66.28;38.67;;;;;;;12.81;100.00;100999.41;4984665;28;20122;-64
2023/05/10 04:39:03;;;;;;;60.20;37.10;;;;;;;12.72;100.00;101008.56;4986333;28;20433;-60
2023/05/10 04:41:28;;;;;;;53.47;31.88;;;;;;;12.72;100.00;101000.63;4986031;28;20172;-59
2023/05/10 04:43:54;;;;;;;51.72;29.35;;;;;;;12.62;100.00;101007.22;4994622;28;20526;-58
2023/05/10 04:46:19;;;;;;;46.47;28.42;;;;;;;12.67;100.00;101009.69;4997832;28;20030;-62
2023/05/10 04:48:44;;;;;;;49.63;27.73;;;;;;;12.71;100.00;101006.84;4987602;28;20032;-58
2023/05/10 04:51:10;;;;;;;43.58;24.05;;;;;;;12.79;100.00;101003.88;4986845;28;20117;-60
2023/05/10 04:53:35;;;;;;;44.50;24.60;;;;;;;12.79;100.00;101011.81;4987350;28;20041;-59
2023/05/10 04:56:01;;;;;;;45.80;23.67;;;;;;;12.73;100.00;101026.16;4985753;28;20219;-60
2023/05/10 04:58:26;;;;;;;51.45;27.30;;;;;;;12.79;100.00;101016.25;4985555;28;20034;-60
2023/05/10 05:00:51;;;;;;;50.08;27.25;;;;;;;12.81;100.00;101023.19;4988902;28;20036;-61
2023/05/10 05:03:17;;;;;;;50.83;26.95;;;;;;;12.82;100.00;101019.63;4993780;28;20400;-60
2023/05/10 05:05:43;;;;;;;42.15;24.70;;;;;;;12.88;100.00;101022.03;4983196;28;20274;-65
2023/05/10 05:08:08;;;;;;;54.20;28.48;;;;;;;12.88;100.00;101018.50;4985353;28;20026;-61
2023/05/10 05:10:34;;;;;;;50.00;27.60;;;;;;;12.83;100.00;101023.13;5003148;28;20149;-63
2023/05/10 05:12:59;;;;;;;47.40;24.58;;;;;;;12.92;100.00;101020.13;5003943;28;20566;-62
2023/05/10 05:15:24;;;;;;;42.65;24.35;;;;;;;13.01;100.00;101029.47;4985988;28;20424;-61
2023/05/10 05:17:50;;;;;;;45.97;24.38;;;;;;;13.17;100.00;101028.81;4986628;28;20027;-60
2023/05/10 05:20:15;;;;;;;45.05;22.63;;;;;;;13.23;100.00;101039.16;4986955;28;20113;-59
2023/05/10 05:22:41;;;;;;;40.92;23.85;;;;;;;13.33;100.00;101045.78;5004117;28;20030;-60
2023/05/10 05:25:06;;;;;;;47.97;24.63;;;;;;;13.32;100.00;101041.41;4996065;28;20050;-60
2023/05/10 05:27:32;;;;;;;41.97;23.77;;;;;;;13.22;100.00;101050.66;4987056;28;20026;-58
2023/05/10 05:29:58;;;;;;;45.88;24.60;;;;;;;13.28;100.00;101055.72;4983533;28;20038;-62
2023/05/10 05:32:24;;;;;;;40.20;20.35;;;;;;;13.12;100.00;101047.53;4984731;28;20378;-60
2023/05/10 05:34:50;;;;;;;35.72;20.60;;;;;;;13.07;100.00;101050.38;4986469;28;20401;-62
2023/05/10 05:37:17;;;;;;;34.28;18.40;;;;;;;12.94;100.00;101055.28;4985357;28;20157;-60
2023/05/10 05:39:43;;;;;;;36.90;18.38;;;;;;;13.01;100.00;101066.50;4984162;28;20037;-63
2023/05/10 05:42:12;;;;;;;35.58;18.20;;;;;;;12.97;100.00;101065.75;4986073;28;20014;-59
2023/05/10 05:44:37;;;;;;;36.97;19.33;;;;;;;12.96;100.00;101065.81;4983699;28;20037;-61
2023/05/10 05:47:03;;;;;;;37.90;19.40;;;;;;;13.04;100.00;101061.09;4986517;28;20026;-60
2023/05/10 05:49:29;;;;;;;43.85;22.70;;;;;;;13.04;100.00;101066.38;4978193;28;20047;-62
2023/05/10 05:51:54;;;;;;;50.05;22.55;;;;;;;13.10;100.00;101066.09;4980137;28;20049;-61
2023/05/10 05:54:19;;;;;;;38.88;20.52;;;;;;;13.29;100.00;101064.47;4989947;28;20072;-61
2023/05/10 05:56:45;;;;;;;42.25;21.67;;;;;;;13.44;100.00;101062.97;4989435;28;20092;-59
2023/05/10 05:59:11;;;;;;;43.42;19.52;;;;;;;13.67;100.00;101067.34;4988354;28;20022;-59
2023/05/10 06:01:36;;;;;;;32.55;17.38;;;;;;;13.86;100.00;101075.34;4977964;28;20058;-59
2023/05/10 06:04:02;;;;;;;30.90;16.95;;;;;;;13.84;100.00;101071.88;4981241;28;20811;-59
2023/05/10 06:06:27;;;;;;;27.75;14.60;;;;;;;13.86;100.00;101063.88;4985438;28;20535;-60
2023/05/10 06:08:53;;;;;;;27.00;14.43;;;;;;;13.83;100.00;101059.56;4989765;28;20029;-60
2023/05/10 06:11:18;;;;;;;22.90;12.73;;;;;;;13.78;100.00;101061.56;4989176;28;20680;-63
2023/05/10 06:13:44;;;;;;;19.58;11.65;;;;;;;13.87;100.00;101065.56;4989756;28;20026;-59
2023/05/10 06:16:09;;;;;;;16.83;10.40;;;;;;;13.68;100.00;101076.13;4989993;28;20018;-64
2023/05/10 06:18:35;;;;;;;21.83;11.63;;;;;;;13.83;100.00;101075.47;4991488;28;20028;-60
2023/05/10 06:21:00;;;;;;;16.42;9.85;;;;;;;14.00;100.00;101073.88;4988341;28;20112;-63
2023/05/10 06:23:26;;;;;;;15.77;9.77;;;;;;;14.11;100.00;101079.53;4989797;28;20649;-60
2023/05/10 06:25:51;;;;;;;16.60;10.18;;;;;;;13.94;100.00;101069.66;4989422;28;20473;-60
2023/05/10 06:28:17;;;;;;;15.85;9.63;;;;;;;14.09;100.00;101077.88;4989478;28;20026;-60
2023/05/10 06:30:42;;;;;;;13.43;9.32;;;;;;;14.20;100.00;101077.38;4989257;28;20022;-63
2023/05/10 06:33:07;;;;;;;19.10;9.93;;;;;;;14.31;100.00;101079.53;4990021;28;20023;-60
2023/05/10 06:35:33;;;;;;;16.27;9.77;;;;;;;14.47;100.00;101080.56;4987834;28;20338;-59
2023/05/10 06:37:59;;;;;;;14.25;9.15;;;;;;;14.38;100.00;101081.84;4988202;28;20114;-62
2023/05/10 06:40:24;;;;;;;12.98;9.10;;;;;;;14.37;100.00;101084.56;4986406;28;20405;-60
2023/05/10 06:42:50;;;;;;;13.63;8.52;;;;;;;14.36;100.00;101083.69;4986204;28;20029;-62
2023/05/10 06:45:15;;;;;;;14.98;8.27;;;;;;;14.60;100.00;101080.84;4986751;28;20033;-62
2023/05/10 06:47:41;;;;;;;8.65;6.68;;;;;;;14.68;100.00;101084.91;4987559;28;20030;-60
2023/05/10 06:50:11;;;;;;;10.50;7.60;;;;;;;14.90;100.00;101093.59;4987991;28;20580;-62
2023/05/10 06:52:36;;;;;;;10.07;7.05;;;;;;;15.00;100.00;101087.84;4986637;28;20092;-62
2023/05/10 06:55:03;;;;;;;9.75;7.47;;;;;;;14.91;100.00;101089.16;4987292;28;20725;-61
2023/05/10 06:57:28;;;;;;;9.27;6.65;;;;;;;14.77;100.00;101095.09;4976123;28;20389;-66
2023/05/10 06:59:55;;;;;;;8.88;6.50;;;;;;;14.70;100.00;101098.97;4979546;28;20026;-61
2023/05/10 07:02:21;;;;;;;9.27;6.30;;;;;;;14.81;100.00;101099.34;5007419;28;20053;-63
2023/05/10 07:04:47;;;;;;;6.70;5.75;;;;;;;15.04;100.00;101105.34;4988322;28;20069;-60
2023/05/10 07:07:13;;;;;;;5.97;5.38;;;;;;;15.50;100.00;101098.72;4985515;28;20046;-63
2023/05/10 07:09:38;;;;;;;6.35;5.35;;;;;;;15.58;100.00;101103.59;4984368;28;20018;-58
2023/05/10 07:12:04;;;;;;;6.15;4.80;;;;;;;15.68;100.00;101104.84;4983694;28;20030;-62
2023/05/10 07:14:29;;;;;;;4.47;4.07;;;;;;;15.66;100.00;101107.59;4985708;28;20327;-59
2023/05/10 07:16:55;;;;;;;4.55;4.15;;;;;;;15.53;100.00;101109.16;4987192;28;20065;-60
2023/05/10 07:19:20;;;;;;;4.47;4.00;;;;;;;15.43;100.00;101113.19;4983679;28;20038;-59
2023/05/10 07:21:45;;;;;;;4.68;3.80;;;;;;;15.16;100.00;101114.50;4986293;28;20034;-60
2023/05/10 07:24:11;;;;;;;5.45;4.32;;;;;;;15.28;100.00;101118.34;4975724;28;20039;-62
2023/05/10 07:26:36;;;;;;;4.30;3.90;;;;;;;15.24;100.00;101122.09;4984648;28;20177;-59
2023/05/10 07:29:02;;;;;;;5.55;4.65;;;;;;;15.27;100.00;101121.94;4986337;28;20044;-61
2023/05/10 07:31:27;;;;;;;7.15;4.43;;;;;;;15.20;100.00;101131.16;4986664;28;20042;-59
2023/05/10 07:33:53;;;;;;;6.85;4.78;;;;;;;15.11;100.00;101128.00;4978930;28;20492;-60
2023/05/10 07:36:18;;;;;;;8.02;5.22;;;;;;;15.00;100.00;101125.00;4990369;28;20035;-63
2023/05/10 07:38:44;;;;;;;7.03;5.38;;;;;;;14.88;100.00;101121.16;4983474;28;20416;-62
2023/05/10 07:41:09;;;;;;;5.95;5.15;;;;;;;14.87;100.00;101125.59;4983789;28;20066;-61
2023/05/10 07:43:34;;;;;;;6.43;5.15;;;;;;;14.86;100.00;101129.19;4986992;28;20468;-60
2023/05/10 07:46:00;;;;;;;6.57;5.47;;;;;;;14.97;100.00;101128.69;4985811;28;20109;-62
2023/05/10 07:48:26;;;;;;;7.47;5.80;;;;;;;15.00;100.00;101125.00;4988534;28;20018;-62
2023/05/10 07:50:51;;;;;;;7.38;4.90;;;;;;;15.03;100.00;101130.16;4986610;28;20041;-64
2023/05/10 07:53:17;;;;;;;7.65;5.22;;;;;;;15.05;100.00;101138.06;4986755;28;20022;-59
2023/05/10 07:55:42;;;;;;;10.52;5.40;;;;;;;15.05;100.00;101133.59;4985348;28;20366;-64
2023/05/10 07:58:07;;;;;;;7.72;6.18;;;;;;;15.31;100.00;101138.56;4979728;28;20025;-60
2023/05/10 08:00:33;;;;;;;8.93;5.03;;;;;;;15.43;100.00;101135.31;4980095;28;20049;-60
2023/05/10 08:02:59;;;;;;;7.22;4.78;;;;;;;15.31;100.00;101142.09;4977647;28;20033;-59
2023/05/10 08:05:24;;;;;;;8.18;5.50;;;;;;;15.28;100.00;101136.94;4984305;28;20026;-60
2023/05/10 08:07:50;;;;;;;8.80;5.45;;;;;;;15.31;100.00;101144.75;4987693;28;20393;-61
2023/05/10 08:10:15;;;;;;;8.90;5.30;;;;;;;15.36;100.00;101142.75;5001014;28;20034;-57
2023/05/10 08:12:40;;;;;;;6.28;5.30;;;;;;;15.43;100.00;101140.63;4985004;28;20092;-60
2023/05/10 08:15:06;;;;;;;6.78;5.03;;;;;;;15.44;100.00;101144.16;4984473;28;20241;-60
2023/05/10 08:17:32;;;;;;;8.02;5.75;;;;;;;15.62;100.00;101143.22;4987735;28;20121;-59
2023/05/10 08:19:57;;;;;;;8.15;5.35;;;;;;;15.50;100.00;101149.16;4975192;28;20468;-58
2023/05/10 08:22:22;;;;;;;8.30;5.65;;;;;;;15.50;100.00;101154.47;4985129;28;20392;-60
2023/05/10 08:24:48;;;;;;;8.95;5.60;;;;;;;15.40;100.00;101152.25;4988560;28;20026;-59
2023/05/10 08:27:13;;;;;;;10.32;5.97;;;;;;;15.45;100.00;101156.47;4985612;28;20018;-59
2023/05/10 08:29:38;;;;;;;8.00;5.30;;;;;;;15.47;100.00;101165.25;4988758;28;20046;-59
2023/05/10 08:32:04;;;;;;;11.73;5.70;;;;;;;15.35;100.00;101166.72;4987568;28;20120;-61
2023/05/10 08:34:30;;;;;;;9.65;5.57;;;;;;;15.21;100.00;101167.38;4985833;28;20153;-58
2023/05/10 08:36:56;;;;;;;6.78;5.35;;;;;;;15.10;100.00;101165.22;4982776;28;20756;-61
2023/05/10 08:39:23;;;;;;;9.68;5.32;;;;;;;15.06;100.00;101161.88;4975277;28;20047;-60
2023/05/10 08:41:51;;;;;;;11.27;5.78;;;;;;;15.10;100.00;101168.75;4967842;28;20548;-63
2023/05/10 08:44:18;;;;;;;8.95;5.53;;;;;;;15.14;100.00;101175.63;4980111;28;20027;-62
2023/05/10 08:46:46;;;;;;;8.25;5.55;;;;;;;14.97;100.00;101179.09;4984509;28;20231;-60
2023/05/10 08:49:13;;;;;;;9.15;5.72;;;;;;;15.00;100.00;101183.38;4985237;28;20092;-60
2023/05/10 08:51:43;;;;;;;11.60;6.55;;;;;;;14.88;100.00;101183.03;4983621;28;20495;-65
2023/05/10 08:54:09;;;;;;;10.98;6.93;;;;;;;14.97;100.00;101178.22;4985938;28;20562;-61
2023/05/10 08:56:34;;;;;;;10.35;6.32;;;;;;;15.13;100.00;101189.84;4985255;28;20476;-60
2023/05/10 08:59:00;;;;;;;10.68;6.50;;;;;;;15.09;100.00;101182.97;4977190;28;20046;-59
2023/05/10 09:01:26;;;;;;;11.30;6.68;;;;;;;15.16;100.00;101195.00;4976050;28;20050;-60
2023/05/10 09:03:52;;;;;;;10.68;5.82;;;;;;;15.61;100.00;101196.41;4982364;28;20128;-61
2023/05/10 09:06:17;;;;;;;8.98;5.90;;;;;;;15.95;100.00;101191.22;4986246;28;20029;-61
2023/05/10 09:08:43;;;;;;;11.98;6.28;;;;;;;16.23;100.00;101197.78;4984571;28;20551;-64
2023/05/10 09:11:09;;;;;;;7.70;5.45;;;;;;;16.49;100.00;101191.06;4988143;28;20046;-61
2023/05/10 09:13:35;;;;;;;9.90;5.57;;;;;;;16.53;100.00;101205.09;4986329;28;20029;-60
2023/05/10 09:16:01;;;;;;;9.85;5.00;;;;;;;16.57;100.00;101200.44;4985369;28;20420;-61
2023/05/10 09:18:26;;;;;;;6.00;5.28;;;;;;;16.55;100.00;101209.38;4985336;28;20477;-57
2023/05/10 09:20:51;;;;;;;6.18;4.85;;;;;;;16.50;100.00;101214.06;4973544;28;20065;-61
2023/05/10 09:23:17;;;;;;;7.55;5.28;;;;;;;16.59;100.00;101214.53;4991943;28;20073;-62
2023/05/10 09:25:42;;;;;;;8.20;4.63;;;;;;;16.51;100.00;101209.63;4986622;28;20296;-64
2023/05/10 09:28:08;;;;;;;6.68;4.82;;;;;;;16.39;100.00;101217.31;4988425;28;20062;-59
2023/05/10 09:30:34;;;;;;;8.75;5.50;;;;;;;16.22;100.00;101220.00;4989366;28;20046;-62
2023/05/10 09:33:00;;;;;;;7.93;4.28;;;;;;;16.03;100.00;101213.81;4988857;28;20065;-61
2023/05/10 09:35:28;;;;;;;8.30;4.57;;;;;;;15.73;100.00;101221.50;4989510;28;20049;-60
2023/05/10 09:37:56;;;;;;;4.90;4.00;;;;;;;15.71;100.00;101218.09;4988297;28;20018;-60
2023/05/10 09:40:23;;;;;;;5.03;3.63;;;;;;;15.79;100.00;101221.19;4988318;28;20034;-63
2023/05/10 09:42:58;;;;;;;7.00;4.43;;;;;;;15.90;100.00;101218.84;4988613;28;20444;-60
2023/05/10 09:45:25;;;;;;;4.78;3.97;;;;;;;15.99;100.00;101224.69;4986593;28;20504;-61
2023/05/10 09:47:50;;;;;;;6.40;4.40;;;;;;;16.05;100.00;101229.69;4986187;28;20085;-61
2023/05/10 09:50:16;;;;;;;6.03;4.68;;;;;;;16.25;100.00;101228.66;5009312;28;20452;-60
2023/05/10 09:52:48;;;;;;;7.05;3.92;;;;;;;16.28;100.00;101224.97;5009680;28;20368;-62
2023/05/10 09:55:14;;;;;;;4.22;3.63;;;;;;;16.36;100.00;101228.13;4990110;28;20022;-61
2023/05/10 09:57:40;;;;;;;4.18;3.45;;;;;;;16.30;100.00;101233.75;4988495;28;20393;-60
2023/05/10 10:00:06;;;;;;;8.68;3.75;;;;;;;16.37;100.00;101235.13;5005966;28;20041;-63
2023/05/10 10:02:32;;;;;;;5.68;4.05;;;;;;;16.58;100.00;101231.44;5009368;28;20241;-59
2023/05/10 10:04:58;;;;;;;4.43;4.03;;;;;;;16.72;100.00;101236.00;5002471;28;20553;-62
2023/05/10 10:07:27;;;;;;;5.30;4.13;;;;;;;16.82;100.00;101231.06;5006137;28;20038;-60
2023/05/10 10:09:53;;;;;;;5.60;4.18;;;;;;;17.10;100.00;101227.75;5006139;28;20026;-62
2023/05/10 10:12:19;;;;;;;5.80;4.55;;;;;;;17.45;100.00;101226.72;5007562;28;20049;-60
2023/05/10 10:14:47;;;;;;;5.72;4.30;;;;;;;17.68;100.00;101233.41;5005405;28;20230;-60
2023/05/10 10:17:12;;;;;;;5.88;3.92;;;;;;;17.64;100.00;101231.84;5008003;28;20105;-63
2023/05/10 10:19:38;;;;;;;5.15;3.97;;;;;;;17.80;100.00;101231.84;5004021;28;20120;-59
2023/05/10 10:22:03;;;;;;;6.75;4.45;;;;;;;18.16;100.00;101232.44;5004826;28;20476;-59
2023/05/10 10:24:29;;;;;;;6.35;4.60;;;;;;;18.19;100.00;101232.25;5006864;28;20032;-61
2023/05/10 10:26:57;;;;;;;7.10;5.07;;;;;;;18.12;100.00;101228.22;5006337;28;20026;-60
2023/05/10 10:29:39;;;;;;;8.30;5.05;;;;;;;18.06;100.00;101228.56;5003962;28;20030;-61
2023/05/10 10:32:42;;;;;;;6.90;5.50;;;;;;;17.79;100.00;101231.94;4986167;28;20022;-62
2023/05/10 10:35:08;;;;;;;7.68;5.07;;;;;;;17.82;100.00;101231.72;4985943;28;20248;-59
2023/05/10 10:37:45;;;;;;;6.60;4.93;;;;;;;17.78;100.00;101227.53;4987335;28;20608;-59
2023/05/10 10:40:26;;;;;;;9.63;4.72;;;;;;;17.69;100.00;101231.59;4986225;28;20030;-62
2023/05/10 10:42:53;;;;;;;11.65;6.40;;;;;;;17.45;100.00;101237.38;4987078;28;20380;-62
2023/05/10 10:45:19;;;;;;;16.95;8.35;;;;;;;17.00;100.00;101239.81;4999722;28;20463;-60
2023/05/10 10:47:45;;;;;;;14.52;7.90;;;;;;;17.05;100.00;101240.44;4988107;28;20429;-61
2023/05/10 10:50:12;;;;;;;12.75;7.70;;;;;;;16.94;100.00;101233.03;4986515;28;20069;-60
2023/05/10 10:52:42;;;;;;;13.73;8.25;;;;;;;16.69;100.00;101239.69;4982017;28;20051;-61
2023/05/10 10:55:10;;;;;;;13.80;8.30;;;;;;;16.63;100.00;101251.53;4979038;28;20104;-61
2023/05/10 10:57:55;;;;;;;12.48;7.53;;;;;;;16.37;100.00;101256.41;4988942;28;20076;-60
2023/05/10 11:00:30;;;;;;;10.70;6.40;;;;;;;16.02;100.00;101259.09;4986928;28;20101;-64
2023/05/10 11:03:04;;;;;;;9.25;6.28;;;;;;;16.06;100.00;101246.50;4986418;28;20026;-60
2023/05/10 11:05:49;;;;;;;10.70;6.72;;;;;;;16.08;100.00;101260.56;4989863;28;20022;-59
2023/05/10 11:08:21;;;;;;;9.77;6.80;;;;;;;16.23;100.00;101265.13;4997600;28;20026;-61